| time (UTC) | temp C | wind direction | speed KPH | gust KPH | rain 1hr cm | rain 24hr cm | rain mn cm | humidity % | barometer mb |
| 20260905182122 | 21 | 280 | 22.5 | 0.0 | 0.00 | 0.00 | 0.00 | 43 | |
| 20260905181331 | 22 | 280 | 20.9 | 0.0 | 0.00 | 0.00 | 0.00 | 40 | 1019.0 |
| 20260905181131 | 22 | 280 | 20.9 | 0.0 | 0.00 | 0.00 | 0.00 | 40 | 1019.0 |
| 20260905180731 | 22 | 280 | 20.9 | 0.0 | 0.00 | 0.00 | 0.00 | 40 | 1019.0 |
| 20260905180333 | 22 | 280 | 20.9 | 0.0 | 0.00 | 0.00 | 0.00 | 40 | 1019.0 |
| 20260905180133 | 22 | 270 | 16.1 | 0.0 | 0.00 | 0.00 | 0.00 | 40 | 1019.0 |
| 20260905175431 | 22 | 270 | 16.1 | 0.0 | 0.00 | 0.00 | 0.00 | 40 | 1019.0 |
| 20260905175231 | 22 | 270 | 16.1 | 0.0 | 0.00 | 0.00 | 0.00 | 40 | 1019.0 |
| 20260905174731 | 22 | 270 | 16.1 | 0.0 | 0.00 | 0.00 | 0.00 | 40 | 1019.0 |
| 20260905174131 | 22 | 270 | 16.1 | 0.0 | 0.00 | 0.00 | 0.00 | 40 | 1019.0 |
| 20260905173445 | 22 | 270 | 16.1 | 0.0 | 0.00 | 0.00 | 0.00 | 40 | 1019.0 |
| 20260905172731 | 22 | 290 | 22.5 | 0.0 | 0.00 | 0.00 | 0.00 | 38 | 1019.0 |
| 20260905172227 | 22 | 280 | 22.5 | 0.0 | 0.00 | 0.00 | 0.00 | 38 | |
| 20260905172138 | 22 | 290 | 22.5 | 0.0 | 0.00 | 0.00 | 0.00 | 38 | 1019.0 |
| 20260905171553 | 22 | 290 | 22.5 | 0.0 | 0.00 | 0.00 | 0.00 | 38 | 1019.0 |
| 20260905170545 | 22 | 290 | 22.5 | 0.0 | 0.00 | 0.00 | 0.00 | 38 | 1019.0 |
| 20260905170228 | 22 | 290 | 22.5 | 0.0 | 0.00 | 0.00 | 0.00 | 38 | 1019.0 |
| 20260905163831 | 22 | 270 | 29.0 | 0.0 | 0.00 | 0.00 | 0.00 | 35 | 1019.0 |
| 20260905163224 | 22 | 270 | 29.0 | 0.0 | 0.00 | 0.00 | 0.00 | 35 | 1019.0 |
| 20260905162930 | 23 | 290 | 32.2 | 0.0 | 0.00 | 0.00 | 0.00 | 33 | 1019.0 |
| 20260905162531 | 23 | 280 | 32.2 | 0.0 | 0.00 | 0.00 | 0.00 | 33 | |
| 20260905162238 | 23 | 290 | 32.2 | 0.0 | 0.00 | 0.00 | 0.00 | 33 | 1019.0 |
| 20260905161632 | 23 | 290 | 32.2 | 0.0 | 0.00 | 0.00 | 0.00 | 33 | 1019.0 |
| 20260905161132 | 23 | 290 | 32.2 | 0.0 | 0.00 | 0.00 | 0.00 | 33 | 1019.0 |
| 20260905160831 | 23 | 290 | 32.2 | 0.0 | 0.00 | 0.00 | 0.00 | 33 | 1019.0 |
| 20260905160333 | 23 | 290 | 32.2 | 0.0 | 0.00 | 0.00 | 0.00 | 33 | 1019.0 |
| 20260905154731 | 23 | 290 | 32.2 | 0.0 | 0.00 | 0.00 | 0.00 | 33 | 1018.0 |
| 20260905154552 | 23 | 290 | 32.2 | 0.0 | 0.00 | 0.00 | 0.00 | 33 | 1018.0 |
| 20260905154231 | 23 | 290 | 32.2 | 0.0 | 0.00 | 0.00 | 0.00 | 33 | 1018.0 |
| 20260905152000 | 23 | 300 | 32.2 | 0.0 | 0.00 | 0.00 | 0.00 | 31 | |
| 20260905151842 | 23 | 290 | 35.4 | 0.0 | 0.00 | 0.00 | 0.00 | 31 | 1018.0 |
| 20260905151132 | 23 | 290 | 35.4 | 0.0 | 0.00 | 0.00 | 0.00 | 31 | 1018.0 |
| 20260905150630 | 23 | 290 | 35.4 | 0.0 | 0.00 | 0.00 | 0.00 | 31 | 1018.0 |
| 20260905145931 | 25 | 290 | 33.8 | 0.0 | 0.00 | 0.00 | 0.00 | 31 | 1018.0 |
| 20260905145631 | 25 | 290 | 33.8 | 0.0 | 0.00 | 0.00 | 0.00 | 31 | 1018.0 |
| 20260905145130 | 25 | 290 | 33.8 | 0.0 | 0.00 | 0.00 | 0.00 | 31 | 1018.0 |
| 20260905144231 | 25 | 290 | 33.8 | 0.0 | 0.00 | 0.00 | 0.00 | 31 | 1018.0 |
| 20260905143732 | 25 | 290 | 33.8 | 0.0 | 0.00 | 0.00 | 0.00 | 31 | 1018.0 |
| 20260905142138 | 23 | 290 | 33.8 | 0.0 | 0.00 | 0.00 | 0.00 | 31 | 1018.0 |
| 20260905141958 | 23 | 290 | 32.2 | 0.0 | 0.00 | 0.00 | 0.00 | 31 | |
| 20260905140444 | 23 | 290 | 33.8 | 0.0 | 0.00 | 0.00 | 0.00 | 31 | 1018.0 |
| 20260905140134 | 23 | 280 | 29.0 | 0.0 | 0.00 | 0.00 | 0.00 | 33 | 1018.0 |
| 20260905135053 | 23 | 280 | 29.0 | 0.0 | 0.00 | 0.00 | 0.00 | 33 | 1018.0 |
| 20260905134630 | 23 | 280 | 29.0 | 0.0 | 0.00 | 0.00 | 0.00 | 33 | 1018.0 |
| 20260905134231 | 23 | 280 | 29.0 | 0.0 | 0.00 | 0.00 | 0.00 | 33 | 1018.0 |
| 20260905133832 | 23 | 280 | 29.0 | 0.0 | 0.00 | 0.00 | 0.00 | 33 | 1018.0 |
| 20260905133444 | 23 | 280 | 29.0 | 0.0 | 0.00 | 0.00 | 0.00 | 33 | 1018.0 |
| 20260905133234 | 23 | 280 | 29.0 | 0.0 | 0.00 | 0.00 | 0.00 | 33 | 1018.0 |
| 20260905133131 | 23 | 290 | 27.4 | 46.7 | 0.00 | 0.00 | 0.00 | 36 | 1018.0 |
| 20260905132337 | 23 | 280 | 32.2 | 0.0 | 0.00 | 0.00 | 0.00 | 33 | |
| 20260905132241 | 23 | 290 | 27.4 | 46.7 | 0.00 | 0.00 | 0.00 | 36 | 1018.0 |
| 20260905131713 | 23 | 290 | 27.4 | 46.7 | 0.00 | 0.00 | 0.00 | 36 | 1018.0 |
| 20260905131630 | 23 | 280 | 33.8 | 0.0 | 0.00 | 0.00 | 0.00 | 33 | 1018.0 |
| 20260905131131 | 23 | 280 | 33.8 | 0.0 | 0.00 | 0.00 | 0.00 | 33 | 1018.0 |
| 20260905130731 | 23 | 280 | 33.8 | 0.0 | 0.00 | 0.00 | 0.00 | 33 | 1018.0 |
| 20260905130234 | 23 | 280 | 33.8 | 0.0 | 0.00 | 0.00 | 0.00 | 33 | 1018.0 |
| 20260905125631 | 23 | 280 | 32.2 | 0.0 | 0.00 | 0.00 | 0.00 | 36 | 1018.0 |
| 20260905125431 | 23 | 280 | 32.2 | 0.0 | 0.00 | 0.00 | 0.00 | 36 | 1018.0 |
| 20260905125231 | 23 | 280 | 32.2 | 0.0 | 0.00 | 0.00 | 0.00 | 36 | 1018.0 |
| 20260905124930 | 23 | 280 | 32.2 | 0.0 | 0.00 | 0.00 | 0.00 | 36 | 1018.0 |
| 20260905124552 | 23 | 280 | 32.2 | 0.0 | 0.00 | 0.00 | 0.00 | 36 | 1018.0 |
| 20260905124052 | 23 | 280 | 32.2 | 0.0 | 0.00 | 0.00 | 0.00 | 36 | 1018.0 |
| 20260905123631 | 23 | 280 | 32.2 | 0.0 | 0.00 | 0.00 | 0.00 | 36 | 1018.0 |
| 20260905123331 | 23 | 280 | 32.2 | 0.0 | 0.00 | 0.00 | 0.00 | 36 | 1018.0 |
| 20260905123131 | 23 | 270 | 29.0 | 0.0 | 0.00 | 0.00 | 0.00 | 38 | 1019.0 |
| 20260905122235 | 23 | 280 | 29.0 | 0.0 | 0.00 | 0.00 | 0.00 | 36 | |
| 20260905122138 | 23 | 270 | 29.0 | 0.0 | 0.00 | 0.00 | 0.00 | 38 | 1019.0 |
| 20260905121742 | 23 | 270 | 29.0 | 0.0 | 0.00 | 0.00 | 0.00 | 38 | 1019.0 |
| 20260905121131 | 23 | 270 | 29.0 | 0.0 | 0.00 | 0.00 | 0.00 | 38 | 1019.0 |
| 20260905120546 | 23 | 270 | 29.0 | 0.0 | 0.00 | 0.00 | 0.00 | 38 | 1019.0 |
| 20260905115837 | 22 | 280 | 27.4 | 0.0 | 0.00 | 0.00 | 0.00 | 38 | 1019.0 |
| 20260905114052 | 22 | 280 | 27.4 | 0.0 | 0.00 | 0.00 | 0.00 | 38 | 1019.0 |
| 20260905113223 | 22 | 280 | 27.4 | 0.0 | 0.00 | 0.00 | 0.00 | 38 | 1019.0 |
| 20260905112731 | 22 | 260 | 27.4 | 0.0 | 0.00 | 0.00 | 0.00 | 43 | 1019.0 |
| 20260905112237 | 22 | 260 | 27.4 | 0.0 | 0.00 | 0.00 | 0.00 | 43 | 1019.0 |
| 20260905112131 | 22 | 260 | 25.7 | 0.0 | 0.00 | 0.00 | 0.00 | 43 | |
| 20260905111838 | 22 | 260 | 27.4 | 0.0 | 0.00 | 0.00 | 0.00 | 43 | 1019.0 |
| 20260905110224 | 22 | 260 | 27.4 | 0.0 | 0.00 | 0.00 | 0.00 | 43 | 1019.0 |
| 20260905105231 | 22 | 280 | 20.9 | 0.0 | 0.00 | 0.00 | 0.00 | 53 | 1019.0 |
| 20260905105053 | 22 | 280 | 20.9 | 0.0 | 0.00 | 0.00 | 0.00 | 53 | 1019.0 |
| 20260905104631 | 22 | 280 | 20.9 | 0.0 | 0.00 | 0.00 | 0.00 | 53 | 1019.0 |
| 20260905104331 | 22 | 280 | 20.9 | 0.0 | 0.00 | 0.00 | 0.00 | 53 | 1019.0 |
| 20260905103224 | 22 | 280 | 20.9 | 0.0 | 0.00 | 0.00 | 0.00 | 53 | 1019.0 |
| 20260905102831 | 22 | 270 | 19.3 | 0.0 | 0.00 | 0.00 | 0.00 | 49 | 1019.0 |
| 20260905102545 | 20 | 270 | 19.3 | 0.0 | 0.00 | 0.00 | 0.00 | 56 | |
| 20260905102336 | 22 | 270 | 19.3 | 0.0 | 0.00 | 0.00 | 0.00 | 49 | 1019.0 |
| 20260905101931 | 20 | 270 | 19.3 | 0.0 | 0.00 | 0.00 | 0.00 | 60 | 1019.0 |
| 20260905101431 | 20 | 270 | 19.3 | 0.0 | 0.00 | 0.00 | 0.00 | 60 | 1019.0 |
| 20260905100831 | 20 | 270 | 19.3 | 0.0 | 0.00 | 0.00 | 0.00 | 60 | 1019.0 |
| 20260905100337 | 20 | 270 | 19.3 | 0.0 | 0.00 | 0.00 | 0.00 | 60 | 1019.0 |
| 20260905095231 | 20 | 250 | 19.3 | 0.0 | 0.00 | 0.00 | 0.00 | 60 | 1019.0 |
| 20260905094831 | 20 | 250 | 19.3 | 0.0 | 0.00 | 0.00 | 0.00 | 60 | 1019.0 |
| 20260905094230 | 20 | 250 | 19.3 | 0.0 | 0.00 | 0.00 | 0.00 | 60 | 1019.0 |
| 20260905093732 | 20 | 250 | 19.3 | 0.0 | 0.00 | 0.00 | 0.00 | 60 | 1019.0 |
| 20260905092431 | 18 | 260 | 16.1 | 0.0 | 0.00 | 0.00 | 0.00 | 68 | 1020.0 |
| 20260905092123 | 18 | 260 | 19.3 | 0.0 | 0.00 | 0.00 | 0.00 | 68 | |
| 20260905091944 | 18 | 260 | 16.1 | 0.0 | 0.00 | 0.00 | 0.00 | 68 | 1020.0 |
| 20260905090832 | 18 | 260 | 16.1 | 0.0 | 0.00 | 0.00 | 0.00 | 68 | 1020.0 |
| 20260905090229 | 18 | 260 | 16.1 | 0.0 | 0.00 | 0.00 | 0.00 | 68 | 1020.0 |
| 20260905084230 | 17 | 250 | 12.9 | 0.0 | 0.00 | 0.00 | 0.00 | 77 | 1020.0 |
| 20260905083224 | 17 | 250 | 12.9 | 0.0 | 0.00 | 0.00 | 0.00 | 77 | 1020.0 |
| 20260905082144 | 16 | 270 | 11.3 | 0.0 | 0.00 | 0.00 | 0.00 | 82 | |
| 20260905080227 | 16 | 270 | 8.0 | 0.0 | 0.00 | 0.00 | 0.00 | 77 | 1019.0 |
| 20260905073223 | 16 | 310 | 12.9 | 0.0 | 0.00 | 0.00 | 0.00 | 77 | 1019.0 |
| 20260905072444 | 16 | 260 | 11.3 | 0.0 | 0.00 | 0.00 | 0.00 | 77 | |
| 20260905070225 | 16 | 230 | 12.9 | 0.0 | 0.00 | 0.00 | 0.00 | 77 | 1018.0 |
| 20260905063224 | 16 | 270 | 20.9 | 0.0 | 0.00 | 0.00 | 0.00 | 77 | 1019.0 |
| 20260905062145 | 17 | 270 | 14.5 | 0.0 | 0.00 | 0.00 | 0.00 | 77 | |
| 20260905060227 | 17 | 270 | 12.9 | 0.0 | 0.00 | 0.00 | 0.00 | 77 | 1018.0 |
| 20260905055011 | 17 | 270 | 14.5 | 0.0 | 0.00 | 0.00 | 0.00 | 82 | 1018.0 |
| 20260905053216 | 17 | 250 | 12.9 | 0.0 | 0.00 | 0.00 | 0.00 | 82 | 1018.0 |
| 20260905052141 | 17 | 290 | 8.0 | 0.0 | 0.00 | 0.00 | 0.00 | 82 | |
| 20260905050227 | 17 | 280 | 8.0 | 0.0 | 0.00 | 0.00 | 0.00 | 82 | 1017.0 |
| 20260905043217 | 17 | 300 | 11.3 | 0.0 | 0.00 | 0.00 | 0.00 | 82 | 1017.0 |
| 20260905042545 | 18 | 310 | 11.3 | 0.0 | 0.00 | 0.00 | 0.00 | 59 | |
| 20260905042203 | 17 | 310 | 9.7 | 0.0 | 0.00 | 0.00 | 0.00 | 77 | 1017.0 |
| 20260905041103 | 17 | 290 | 14.5 | 0.0 | 0.00 | 0.00 | 0.00 | 72 | 1016.0 |
| 20260905040703 | 18 | 300 | 12.9 | 0.0 | 0.00 | 0.00 | 0.00 | 63 | 1017.0 |
| 20260905040228 | 18 | 320 | 12.9 | 0.0 | 0.00 | 0.00 | 0.00 | 63 | 1016.0 |
| 20260905033217 | 20 | 330 | 20.9 | 0.0 | 0.00 | 0.00 | 0.00 | 52 | 1016.0 |
| 20260905032143 | 20 | 330 | 14.5 | 0.0 | 0.00 | 0.00 | 0.00 | 56 | |
| 20260905030226 | 20 | 330 | 12.9 | 0.0 | 0.00 | 0.00 | 0.00 | 56 | 1015.0 |
| 20260905023217 | 21 | 330 | 19.3 | 0.0 | 0.00 | 0.00 | 0.00 | 49 | 1015.0 |
| 20260905022143 | 21 | 340 | 25.7 | 0.0 | 0.00 | 0.00 | 0.00 | 52 | |
| 20260905020226 | 21 | 330 | 24.1 | 0.0 | 0.00 | 0.00 | 0.00 | 56 | 1014.0 |
| 20260905013216 | 22 | 330 | 33.8 | 51.5 | 0.00 | 0.00 | 0.00 | 53 | 1014.0 |
| 20260905012459 | 22 | 10 | 8.0 | 0.0 | 0.00 | 0.00 | 0.00 | 49 | |
| 20260905011403 | 22 | 340 | 25.7 | 0.0 | 0.00 | 0.00 | 0.00 | 56 | 1014.0 |
| 20260905010226 | 22 | 0 | 3.2 | 0.0 | 0.00 | 0.00 | 0.00 | 49 | 1013.0 |
| 20260905003217 | 22 | 0 | 0.0 | 0.0 | 0.00 | 0.00 | 0.00 | 53 | 1012.0 |
| 20260905002157 | 22 | 200 | 8.0 | 0.0 | 0.00 | 0.00 | 0.00 | 53 | |
| 20260905000226 | 22 | 210 | 8.0 | 0.0 | 0.00 | 0.00 | 0.00 | 53 | 1012.0 |
| 20260904233217 | 22 | 250 | 3.2 | 0.0 | 0.00 | 0.00 | 0.00 | 49 | 1012.0 |
| 20260904232229 | 22 | 220 | 3.2 | 0.0 | 0.00 | 0.00 | 0.00 | 49 | |
| 20260904230227 | 22 | 0 | 0.0 | 0.0 | 0.00 | 0.00 | 0.00 | 49 | 1011.0 |
| 20260904223217 | 22 | 200 | 4.8 | 0.0 | 0.00 | 0.00 | 0.00 | 49 | 1011.0 |
| 20260904222558 | 23 | 240 | 3.2 | 0.0 | 0.00 | 0.00 | 0.00 | 47 | |
| 20260904220226 | 23 | 0 | 0.0 | 0.0 | 0.00 | 0.00 | 0.00 | 47 | 1011.0 |
| 20260904213217 | 22 | 0 | 3.2 | 0.0 | 0.00 | 0.00 | 0.00 | 53 | 1011.0 |
| 20260904212142 | 22 | 150 | 3.2 | 0.0 | 0.00 | 0.00 | 0.00 | 53 | |
| 20260904210226 | 22 | 0 | 3.2 | 0.0 | 0.00 | 0.00 | 0.00 | 53 | 1011.0 |
| 20260904203216 | 23 | 0 | 0.0 | 0.0 | 0.00 | 0.00 | 0.00 | 47 | 1012.0 |
| 20260904202142 | 22 | 160 | 3.2 | 0.0 | 0.00 | 0.00 | 0.00 | 46 | |
| 20260904200229 | 23 | 0 | 1.6 | 0.0 | 0.00 | 0.00 | 0.00 | 47 | 1012.0 |
| 20260904193217 | 25 | 0 | 3.2 | 0.0 | 0.00 | 0.00 | 0.00 | 44 | 1012.0 |
| 20260904192430 | 25 | 240 | 11.3 | 0.0 | 0.00 | 0.00 | 0.00 | 44 | |
| 20260904190228 | 25 | 250 | 11.3 | 0.0 | 0.00 | 0.00 | 0.00 | 44 | 1012.0 |